createdAt,value
2022-11-03T00:01:41.781Z,100.00
2022-11-03T00:04:11.305Z,100.00
2022-11-03T00:06:39.203Z,100.00
2022-11-03T00:09:07.632Z,100.00
2022-11-03T00:11:40.581Z,100.00
2022-11-03T00:14:11.368Z,100.00
2022-11-03T00:16:42.249Z,100.00
2022-11-03T00:19:09.981Z,100.00
2022-11-03T00:21:38.612Z,100.00
2022-11-03T00:24:08.101Z,100.00
2022-11-03T00:26:44.404Z,100.00
2022-11-03T00:29:13.086Z,100.00
2022-11-03T00:31:43.856Z,100.00
2022-11-03T00:34:12.898Z,100.00
2022-11-03T00:36:44.439Z,100.00
2022-11-03T00:39:16.136Z,100.00
2022-11-03T00:41:48.905Z,100.00
2022-11-03T00:44:15.650Z,100.00
2022-11-03T00:46:45.391Z,100.00
2022-11-03T00:49:12.079Z,100.00
2022-11-03T00:51:39.051Z,100.00
2022-11-03T00:54:07.335Z,100.00
2022-11-03T00:56:41.664Z,100.00
2022-11-03T00:59:10.063Z,100.00
2022-11-03T01:01:45.655Z,100.00
2022-11-03T01:04:33.437Z,100.00
2022-11-03T01:07:02.236Z,100.00
2022-11-03T01:09:39.986Z,100.00
2022-11-03T01:12:08.382Z,100.00
2022-11-03T01:14:52.149Z,100.00
2022-11-03T01:17:21.121Z,100.00
2022-11-03T01:19:48.134Z,100.00
2022-11-03T01:22:15.793Z,100.00
2022-11-03T01:24:45.965Z,100.00
2022-11-03T01:27:18.686Z,100.00
2022-11-03T01:29:45.481Z,100.00
2022-11-03T01:32:12.695Z,100.00
2022-11-03T01:34:39.438Z,100.00
2022-11-03T01:37:06.738Z,100.00
2022-11-03T01:39:36.264Z,100.00
2022-11-03T01:42:02.956Z,100.00
2022-11-03T01:44:35.032Z,100.00
2022-11-03T01:47:07.634Z,100.00
2022-11-03T01:49:45.315Z,100.00
2022-11-03T01:52:26.490Z,100.00
2022-11-03T01:54:59.725Z,100.00
2022-11-03T01:57:33.938Z,100.00
2022-11-03T02:00:01.559Z,100.00
2022-11-03T02:02:28.631Z,100.00
2022-11-03T02:04:57.732Z,100.00
2022-11-03T02:07:34.355Z,100.00
2022-11-03T02:10:01.462Z,100.00
2022-11-03T02:12:28.183Z,100.00
2022-11-03T02:15:00.489Z,100.00
2022-11-03T02:17:29.194Z,100.00
2022-11-03T02:20:06.085Z,100.00
2022-11-03T02:23:01.192Z,100.00
2022-11-03T02:25:33.378Z,100.00
2022-11-03T02:28:00.468Z,100.00
2022-11-03T02:30:28.433Z,100.00
2022-11-03T02:33:06.566Z,100.00
2022-11-03T02:36:15.065Z,100.00
2022-11-03T02:39:11.472Z,100.00
2022-11-03T02:41:39.180Z,100.00
2022-11-03T02:44:11.498Z,100.00
2022-11-03T02:46:39.088Z,100.00
2022-11-03T02:49:05.707Z,100.00
2022-11-03T02:51:32.463Z,100.00
2022-11-03T02:54:20.716Z,100.00
2022-11-03T02:56:53.796Z,100.00
2022-11-03T02:59:25.558Z,100.00
2022-11-03T03:01:58.386Z,100.00
2022-11-03T03:04:47.302Z,100.00
2022-11-03T03:07:20.735Z,100.00
2022-11-03T03:09:55.066Z,100.00
2022-11-03T03:12:21.652Z,100.00
2022-11-03T03:14:49.767Z,100.00
2022-11-03T03:17:19.663Z,100.00
2022-11-03T03:19:54.313Z,100.00
2022-11-03T03:22:43.217Z,100.00
2022-11-03T03:25:20.243Z,100.00
2022-11-03T03:27:49.280Z,100.00
2022-11-03T03:30:16.239Z,100.00
2022-11-03T03:32:48.195Z,100.00
2022-11-03T03:35:21.399Z,100.00
2022-11-03T03:37:50.744Z,100.00
2022-11-03T03:40:23.232Z,100.00
2022-11-03T03:42:50.859Z,100.00
2022-11-03T03:45:18.607Z,100.00
2022-11-03T03:47:45.569Z,100.00
2022-11-03T03:50:12.394Z,100.00
2022-11-03T03:52:39.015Z,100.00
2022-11-03T03:55:08.067Z,100.00
2022-11-03T03:57:34.643Z,100.00
2022-11-03T04:00:01.288Z,100.00
2022-11-03T04:02:27.967Z,100.00
2022-11-03T04:04:54.684Z,100.00
2022-11-03T04:07:42.664Z,100.00
2022-11-03T04:10:10.365Z,100.00
2022-11-03T04:12:55.680Z,100.00
2022-11-03T04:15:40.916Z,100.00
2022-11-03T04:18:26.701Z,100.00
2022-11-03T04:21:12.081Z,100.00
2022-11-03T04:23:39.007Z,100.00
2022-11-03T04:26:11.943Z,100.00
2022-11-03T04:28:38.679Z,100.00
2022-11-03T04:31:07.038Z,100.00
2022-11-03T04:33:33.656Z,100.00
2022-11-03T04:36:00.344Z,100.00
2022-11-03T04:38:27.809Z,100.00
2022-11-03T04:40:56.336Z,100.00
2022-11-03T04:43:30.359Z,100.00
2022-11-03T04:45:57.158Z,100.00
2022-11-03T04:48:25.060Z,100.00
2022-11-03T04:50:54.952Z,100.00
2022-11-03T04:53:22.520Z,100.00
2022-11-03T04:55:53.550Z,100.00
2022-11-03T04:58:28.986Z,100.00
2022-11-03T05:01:00.050Z,100.00
2022-11-03T05:03:32.319Z,100.00
2022-11-03T05:05:59.289Z,100.00
2022-11-03T05:08:25.919Z,100.00
2022-11-03T05:10:52.646Z,100.00
2022-11-03T05:13:24.258Z,100.00
2022-11-03T05:15:52.416Z,100.00
2022-11-03T05:18:25.824Z,100.00
2022-11-03T05:21:01.354Z,100.00
2022-11-03T05:23:30.261Z,100.00
2022-11-03T05:25:58.356Z,100.00
2022-11-03T05:28:27.182Z,100.00
2022-11-03T05:30:54.355Z,100.00
2022-11-03T05:33:33.878Z,100.00
2022-11-03T05:36:04.728Z,100.00
2022-11-03T05:38:32.912Z,100.00
2022-11-03T05:41:00.250Z,100.00
2022-11-03T05:43:28.433Z,100.00
2022-11-03T05:45:58.552Z,100.00
2022-11-03T05:48:41.117Z,100.00
2022-11-03T05:51:15.918Z,100.00
2022-11-03T05:53:43.503Z,100.00
2022-11-03T05:56:17.831Z,100.00
2022-11-03T05:58:44.636Z,100.00
2022-11-03T06:01:13.958Z,100.00
2022-11-03T06:03:40.683Z,100.00
2022-11-03T06:06:36.766Z,100.00
2022-11-03T06:09:09.468Z,100.00
2022-11-03T06:11:37.026Z,100.00
2022-11-03T06:14:16.567Z,100.00
2022-11-03T06:16:48.481Z,100.00
2022-11-03T06:19:21.125Z,100.00
2022-11-03T06:21:49.778Z,100.00
2022-11-03T06:24:18.193Z,100.00
2022-11-03T06:26:46.370Z,100.00
2022-11-03T06:29:17.467Z,100.00
2022-11-03T06:31:47.978Z,100.00
2022-11-03T06:34:21.236Z,100.00
2022-11-03T06:36:47.883Z,100.00
2022-11-03T06:39:20.905Z,100.00
2022-11-03T06:41:47.575Z,100.00
2022-11-03T06:44:24.829Z,100.00
2022-11-03T06:46:53.573Z,100.00
2022-11-03T06:49:33.288Z,100.00
2022-11-03T06:52:03.465Z,100.00
2022-11-03T06:54:30.114Z,100.00
2022-11-03T06:56:56.781Z,100.00
2022-11-03T06:59:24.621Z,100.00
2022-11-03T07:01:54.748Z,100.00
2022-11-03T07:04:23.056Z,100.00
2022-11-03T07:06:53.317Z,100.00
2022-11-03T07:09:22.549Z,100.00
2022-11-03T07:11:51.885Z,100.00
2022-11-03T07:14:21.916Z,100.00
2022-11-03T07:16:51.237Z,100.00
2022-11-03T07:19:27.441Z,100.00
2022-11-03T07:21:59.846Z,100.00
2022-11-03T07:24:33.866Z,100.00
2022-11-03T07:27:27.321Z,100.00
2022-11-03T07:30:14.899Z,100.00
2022-11-03T07:32:42.240Z,100.00
2022-11-03T07:35:17.927Z,100.00
2022-11-03T07:37:45.072Z,100.00
2022-11-03T07:40:18.677Z,100.00
2022-11-03T07:42:45.382Z,100.00
2022-11-03T07:45:34.182Z,100.00
2022-11-03T07:48:11.059Z,100.00
2022-11-03T07:50:38.608Z,100.00
2022-11-03T07:53:12.052Z,100.00
2022-11-03T07:55:38.657Z,100.00
2022-11-03T07:58:36.096Z,100.00
2022-11-03T08:01:16.849Z,100.00
2022-11-03T08:03:46.425Z,100.00
2022-11-03T08:06:14.678Z,100.00
2022-11-03T08:08:43.864Z,100.00
2022-11-03T08:11:10.715Z,100.00
2022-11-03T08:13:37.378Z,100.00
2022-11-03T08:16:04.140Z,100.00
2022-11-03T08:18:30.716Z,100.00
2022-11-03T08:20:57.374Z,100.00
2022-11-03T08:23:26.078Z,100.00
2022-11-03T08:25:53.013Z,100.00
2022-11-03T08:28:19.621Z,100.00
2022-11-03T08:30:46.242Z,100.00
2022-11-03T08:33:12.916Z,100.00
2022-11-03T08:35:39.586Z,100.00
2022-11-03T08:38:06.452Z,100.00
2022-11-03T08:40:33.249Z,100.00
2022-11-03T08:43:02.955Z,100.00
2022-11-03T08:45:30.346Z,100.00
2022-11-03T08:47:57.221Z,100.00
2022-11-03T08:50:24.490Z,100.00
2022-11-03T08:52:51.233Z,100.00
2022-11-03T08:55:18.065Z,100.00
2022-11-03T08:57:44.674Z,100.00
2022-11-03T09:00:12.022Z,100.00
2022-11-03T09:02:38.845Z,100.00
2022-11-03T09:05:07.761Z,100.00
2022-11-03T09:10:26.347Z,100.00
2022-11-03T09:12:59.494Z,100.00
2022-11-03T09:15:26.113Z,100.00
2022-11-03T09:17:52.814Z,100.00
2022-11-03T09:20:21.048Z,100.00
2022-11-03T09:22:47.690Z,100.00
2022-11-03T09:25:14.417Z,100.00
2022-11-03T09:27:41.055Z,100.00
2022-11-03T09:30:13.282Z,100.00
2022-11-03T09:32:41.037Z,100.00
2022-11-03T09:35:09.609Z,100.00
2022-11-03T09:37:36.878Z,100.00
2022-11-03T09:40:04.306Z,100.00
2022-11-03T09:42:34.367Z,100.00
2022-11-03T09:45:02.030Z,100.00
2022-11-03T09:47:36.378Z,100.00
2022-11-03T09:50:03.514Z,100.00
2022-11-03T09:52:31.065Z,100.00
2022-11-03T09:54:59.613Z,98.46
2022-11-03T09:57:29.395Z,100.00
2022-11-03T09:59:56.148Z,98.38
2022-11-03T10:02:28.620Z,94.72
2022-11-03T10:04:57.487Z,95.39
2022-11-03T10:07:26.231Z,97.56
2022-11-03T10:09:54.289Z,93.69
2022-11-03T10:12:22.002Z,90.96
2022-11-03T10:14:49.045Z,89.35
2022-11-03T10:17:22.219Z,89.87
2022-11-03T10:19:51.571Z,86.72
2022-11-03T10:22:20.278Z,87.22
2022-11-03T10:24:46.837Z,87.84
2022-11-03T10:27:22.132Z,87.65
2022-11-03T10:30:10.513Z,87.46
2022-11-03T10:32:38.157Z,88.67
2022-11-03T10:35:34.029Z,86.26
2022-11-03T10:38:31.241Z,88.10
2022-11-03T10:41:13.032Z,86.65
2022-11-03T10:43:41.227Z,85.14
2022-11-03T10:46:44.611Z,87.92
2022-11-03T10:49:15.550Z,87.34
2022-11-03T10:51:43.229Z,87.07
2022-11-03T10:54:13.077Z,87.66
2022-11-03T10:56:39.820Z,87.11
2022-11-03T10:59:06.684Z,88.83
2022-11-03T11:01:33.579Z,86.77
2022-11-03T11:04:00.296Z,88.31
2022-11-03T11:06:30.880Z,85.64
2022-11-03T11:09:02.390Z,87.77
2022-11-03T11:11:29.187Z,85.61
2022-11-03T11:14:21.983Z,86.12
2022-11-03T11:16:53.008Z,86.78
2022-11-03T11:19:22.626Z,83.70
2022-11-03T11:21:56.635Z,83.24
2022-11-03T11:24:45.287Z,83.46
2022-11-03T11:27:31.949Z,85.12
2022-11-03T11:29:59.334Z,84.92
2022-11-03T11:32:44.829Z,82.53
2022-11-03T11:35:16.117Z,84.71
2022-11-03T11:37:43.663Z,81.22
2022-11-03T11:40:36.306Z,82.15
2022-11-03T11:43:02.919Z,85.17
2022-11-03T11:46:07.472Z,83.51
2022-11-03T11:48:36.486Z,82.66
2022-11-03T11:51:04.044Z,85.34
2022-11-03T11:53:44.016Z,86.31
2022-11-03T11:56:14.119Z,86.45
2022-11-03T11:58:42.493Z,84.35
2022-11-03T12:01:30.988Z,85.83
2022-11-03T12:04:00.133Z,84.56
2022-11-03T12:06:38.604Z,85.08
2022-11-03T12:09:29.390Z,85.99
2022-11-03T12:12:07.180Z,86.13
2022-11-03T12:14:37.025Z,88.53
2022-11-03T12:17:19.093Z,83.22
2022-11-03T12:19:47.824Z,83.87
2022-11-03T12:22:23.668Z,83.05
2022-11-03T12:24:51.529Z,86.73
2022-11-03T12:27:42.649Z,87.74
2022-11-03T12:30:19.196Z,89.20
2022-11-03T12:32:46.864Z,87.73
2022-11-03T12:35:14.186Z,84.48
2022-11-03T12:37:42.191Z,86.23
2022-11-03T12:40:10.169Z,87.37
2022-11-03T12:42:37.060Z,88.97
2022-11-03T12:45:04.154Z,90.77
2022-11-03T12:47:30.944Z,87.41
2022-11-03T12:49:57.759Z,89.13
2022-11-03T12:52:24.554Z,89.19
2022-11-03T12:54:51.275Z,89.44
2022-11-03T12:57:18.072Z,87.63
2022-11-03T12:59:44.797Z,88.03
2022-11-03T13:02:11.936Z,87.37
2022-11-03T13:04:39.031Z,87.32
2022-11-03T13:07:05.810Z,88.01
2022-11-03T13:09:32.552Z,87.91
2022-11-03T13:12:17.907Z,88.49
2022-11-03T13:14:47.766Z,89.53
2022-11-03T13:17:15.291Z,91.63
2022-11-03T13:19:42.951Z,91.55
2022-11-03T13:22:09.602Z,90.67
2022-11-03T13:24:36.328Z,88.55
2022-11-03T13:27:03.114Z,88.85
2022-11-03T13:29:34.961Z,92.40
2022-11-03T13:32:03.593Z,89.16
2022-11-03T13:34:30.489Z,90.65
2022-11-03T13:36:57.242Z,90.29
2022-11-03T13:39:23.829Z,89.11
2022-11-03T13:41:50.656Z,87.74
2022-11-03T13:44:17.329Z,88.37
2022-11-03T13:46:43.906Z,89.67
2022-11-03T13:51:57.201Z,87.37
2022-11-03T14:00:01.913Z,88.73
2022-11-03T14:05:18.155Z,89.83
2022-11-03T14:07:45.225Z,88.14
2022-11-03T14:10:14.885Z,91.03
2022-11-03T14:12:41.696Z,92.48
2022-11-03T14:15:11.123Z,92.89
2022-11-03T14:17:39.574Z,94.40
2022-11-03T14:20:11.610Z,95.80
2022-11-03T14:22:39.417Z,94.70
2022-11-03T14:25:06.626Z,96.51
2022-11-03T14:27:34.350Z,94.90
2022-11-03T14:30:01.176Z,94.54
2022-11-03T14:32:28.023Z,96.65
2022-11-03T14:34:54.846Z,98.58
2022-11-03T14:37:24.704Z,98.30
2022-11-03T14:39:51.429Z,97.85
2022-11-03T14:42:18.317Z,97.58
2022-11-03T14:44:46.594Z,100.00
2022-11-03T14:47:18.021Z,99.34
2022-11-03T14:49:46.665Z,99.13
2022-11-03T14:52:14.407Z,98.49
2022-11-03T14:54:41.290Z,97.93
2022-11-03T14:57:08.102Z,99.33
2022-11-03T14:59:34.904Z,100.00
2022-11-03T15:02:02.040Z,100.00
2022-11-03T15:04:29.235Z,100.00
2022-11-03T15:06:55.928Z,100.00
2022-11-03T15:09:22.685Z,100.00
2022-11-03T15:11:49.414Z,100.00
2022-11-03T15:14:16.160Z,99.96
2022-11-03T15:16:44.002Z,100.00
2022-11-03T15:19:10.613Z,100.00
2022-11-03T15:21:37.252Z,100.00
2022-11-03T15:26:51.399Z,100.00
2022-11-03T15:29:18.106Z,100.00
2022-11-03T15:31:48.244Z,100.00
2022-11-03T15:34:16.009Z,100.00
2022-11-03T15:36:42.760Z,100.00
2022-11-03T15:39:09.697Z,100.00
2022-11-03T15:41:36.484Z,100.00
2022-11-03T15:44:03.156Z,100.00
2022-11-03T15:46:39.063Z,100.00
2022-11-03T15:49:05.709Z,100.00
2022-11-03T15:51:32.460Z,100.00
2022-11-03T15:53:59.551Z,100.00
2022-11-03T15:56:27.235Z,100.00
2022-11-03T15:58:54.230Z,100.00
2022-11-03T16:01:21.030Z,100.00
2022-11-03T16:03:47.993Z,100.00
2022-11-03T16:06:14.703Z,100.00
2022-11-03T16:08:41.536Z,100.00
2022-11-03T16:11:09.178Z,100.00
2022-11-03T16:13:36.163Z,100.00
2022-11-03T16:16:03.146Z,100.00
2022-11-03T16:18:29.807Z,100.00
2022-11-03T16:20:56.613Z,100.00
2022-11-03T16:23:23.330Z,100.00
2022-11-03T16:25:50.055Z,100.00
2022-11-03T16:28:16.708Z,100.00
2022-11-03T16:30:43.379Z,100.00
2022-11-03T16:33:10.209Z,100.00
2022-11-03T16:35:36.929Z,100.00
2022-11-03T16:38:04.143Z,100.00
2022-11-03T16:40:30.795Z,100.00
2022-11-03T16:42:57.455Z,100.00
2022-11-03T16:45:26.603Z,100.00
2022-11-03T16:47:53.543Z,100.00
2022-11-03T16:50:20.737Z,100.00
2022-11-03T16:52:49.189Z,100.00
2022-11-03T16:55:17.331Z,100.00
2022-11-03T16:57:44.101Z,100.00
2022-11-03T17:00:13.245Z,100.00
2022-11-03T17:02:40.411Z,100.00
2022-11-03T17:05:07.810Z,100.00
2022-11-03T17:07:34.554Z,100.00
2022-11-03T17:10:01.437Z,100.00
2022-11-03T17:12:28.142Z,100.00
2022-11-03T17:14:56.730Z,100.00
2022-11-03T17:17:23.964Z,100.00
2022-11-03T17:19:51.111Z,100.00
2022-11-03T17:22:18.425Z,100.00
2022-11-03T17:24:45.028Z,100.00
2022-11-03T17:27:29.155Z,100.00
2022-11-03T17:29:58.001Z,100.00
2022-11-03T17:32:27.065Z,100.00
2022-11-03T17:34:54.722Z,100.00
2022-11-03T17:37:21.440Z,100.00
2022-11-03T17:39:48.127Z,100.00
2022-11-03T17:42:24.712Z,100.00
2022-11-03T17:44:53.588Z,100.00
2022-11-03T17:47:20.781Z,100.00
2022-11-03T17:49:48.099Z,100.00
2022-11-03T17:52:27.748Z,100.00
2022-11-03T17:54:56.059Z,100.00
2022-11-03T17:57:23.253Z,100.00
2022-11-03T17:59:51.854Z,100.00
2022-11-03T18:02:21.651Z,98.55
2022-11-03T18:04:49.267Z,100.00
2022-11-03T18:07:21.547Z,98.25
2022-11-03T18:09:48.768Z,97.53
2022-11-03T18:12:35.690Z,97.98
2022-11-03T18:15:05.133Z,98.13
2022-11-03T18:17:32.236Z,96.42
2022-11-03T18:19:59.098Z,96.35
2022-11-03T18:22:25.849Z,97.91
2022-11-03T18:24:52.966Z,96.23
2022-11-03T18:27:24.947Z,97.47
2022-11-03T18:29:52.073Z,95.89
2022-11-03T18:32:19.344Z,92.53
2022-11-03T18:34:47.809Z,95.28
2022-11-03T18:37:14.616Z,95.40
2022-11-03T18:39:41.371Z,94.39
2022-11-03T18:42:13.010Z,94.92
2022-11-03T18:44:41.471Z,94.35
2022-11-03T18:47:08.847Z,92.83
2022-11-03T18:49:35.845Z,95.52
2022-11-03T18:52:15.858Z,96.19
2022-11-03T18:54:47.631Z,98.09
2022-11-03T18:57:15.364Z,98.17
2022-11-03T18:59:44.016Z,98.93
2022-11-03T19:02:17.020Z,98.92
2022-11-03T19:04:43.907Z,99.10
2022-11-03T19:07:16.885Z,99.45
2022-11-03T19:09:44.097Z,100.00
2022-11-03T19:12:11.672Z,100.00
2022-11-03T19:14:39.965Z,100.00
2022-11-03T19:17:26.169Z,100.00
2022-11-03T19:19:53.502Z,100.00
2022-11-03T19:22:21.686Z,100.00
2022-11-03T19:24:48.805Z,100.00
2022-11-03T19:27:22.667Z,100.00
2022-11-03T19:29:49.510Z,100.00
2022-11-03T19:32:25.420Z,100.00
2022-11-03T19:35:06.247Z,100.00
2022-11-03T19:37:35.728Z,100.00
2022-11-03T19:40:08.893Z,100.00
2022-11-03T19:42:39.591Z,99.91
2022-11-03T19:45:10.825Z,99.71
2022-11-03T19:47:57.547Z,99.35
2022-11-03T19:50:34.966Z,100.00
2022-11-03T19:53:03.831Z,99.80
2022-11-03T19:55:34.434Z,99.82
2022-11-03T19:58:11.590Z,100.00
2022-11-03T20:00:38.302Z,100.00
2022-11-03T20:03:05.107Z,100.00
2022-11-03T20:05:31.914Z,100.00
2022-11-03T20:08:01.839Z,100.00
2022-11-03T20:10:31.721Z,100.00
2022-11-03T20:13:01.680Z,100.00
2022-11-03T20:15:28.338Z,100.00
2022-11-03T20:17:57.023Z,100.00
2022-11-03T20:20:29.459Z,100.00
2022-11-03T20:22:58.284Z,100.00
2022-11-03T20:25:31.220Z,100.00
2022-11-03T20:27:58.060Z,100.00
2022-11-03T20:30:26.449Z,100.00
2022-11-03T20:32:53.533Z,100.00
2022-11-03T20:35:28.316Z,100.00
2022-11-03T20:37:58.162Z,100.00
2022-11-03T20:40:26.948Z,100.00
2022-11-03T20:42:56.737Z,100.00
2022-11-03T20:45:24.074Z,100.00
2022-11-03T20:47:51.922Z,100.00
2022-11-03T20:50:20.775Z,100.00
2022-11-03T20:52:48.083Z,100.00
2022-11-03T20:55:27.708Z,100.00
2022-11-03T20:57:56.568Z,100.00
2022-11-03T21:00:30.238Z,100.00
2022-11-03T21:03:01.749Z,100.00
2022-11-03T21:05:34.780Z,100.00
2022-11-03T21:08:04.929Z,100.00
2022-11-03T21:10:31.654Z,100.00
2022-11-03T21:12:58.607Z,100.00
2022-11-03T21:16:03.722Z,100.00
2022-11-03T21:18:49.841Z,100.00
2022-11-03T21:21:20.761Z,100.00
2022-11-03T21:23:48.118Z,100.00
2022-11-03T21:26:14.872Z,100.00
2022-11-03T21:28:44.523Z,100.00
2022-11-03T21:31:17.363Z,100.00
2022-11-03T21:33:44.071Z,100.00
2022-11-03T21:36:10.812Z,100.00
2022-11-03T21:38:37.572Z,100.00
2022-11-03T21:41:25.741Z,100.00
2022-11-03T21:44:11.010Z,100.00
2022-11-03T21:46:38.736Z,100.00
2022-11-03T21:49:23.894Z,100.00
2022-11-03T21:51:50.780Z,100.00
2022-11-03T21:54:17.545Z,100.00
2022-11-03T21:56:46.398Z,100.00
2022-11-03T21:59:13.105Z,100.00
2022-11-03T22:01:39.764Z,100.00
2022-11-03T22:04:06.756Z,100.00
2022-11-03T22:06:33.416Z,100.00
2022-11-03T22:09:00.252Z,100.00
2022-11-03T22:11:29.069Z,100.00
2022-11-03T22:14:00.279Z,100.00
2022-11-03T22:16:45.294Z,100.00
2022-11-03T22:19:33.555Z,100.00
2022-11-03T22:22:19.937Z,100.00
2022-11-03T22:25:05.194Z,100.00
2022-11-03T22:27:35.642Z,100.00
2022-11-03T22:30:21.277Z,100.00
2022-11-03T22:32:53.184Z,100.00
2022-11-03T22:35:40.042Z,100.00
2022-11-03T22:38:17.786Z,100.00
2022-11-03T22:41:05.597Z,100.00
2022-11-03T22:43:51.086Z,100.00
2022-11-03T22:46:17.751Z,100.00
2022-11-03T22:48:44.759Z,100.00
2022-11-03T22:51:14.652Z,100.00
2022-11-03T22:54:00.499Z,100.00
2022-11-03T22:56:29.413Z,100.00
2022-11-03T22:59:01.527Z,100.00
2022-11-03T23:01:28.451Z,100.00
2022-11-03T23:03:55.398Z,100.00
2022-11-03T23:06:25.737Z,100.00
2022-11-03T23:08:54.542Z,100.00
2022-11-03T23:11:21.056Z,100.00
2022-11-03T23:13:59.102Z,100.00
2022-11-03T23:16:31.422Z,100.00
2022-11-03T23:19:21.639Z,100.00
2022-11-03T23:21:50.228Z,100.00
2022-11-03T23:24:39.217Z,100.00
2022-11-03T23:27:09.422Z,100.00
2022-11-03T23:29:39.371Z,100.00
2022-11-03T23:32:09.456Z,100.00
2022-11-03T23:34:36.099Z,100.00
2022-11-03T23:37:03.192Z,100.00
2022-11-03T23:39:30.114Z,100.00
2022-11-03T23:41:56.743Z,100.00
2022-11-03T23:44:23.507Z,100.00
2022-11-03T23:47:09.129Z,100.00
2022-11-03T23:49:35.948Z,100.00
2022-11-03T23:52:02.757Z,100.00
2022-11-03T23:54:29.487Z,100.00
2022-11-03T23:57:14.818Z,100.00
2022-11-03T23:59:41.538Z,100.00
